EWG7621 LGZA-EDDH
Flight info
| Callsign | EWG7621 |
|---|---|
| Flight time | 2h 37m |
| Altitude | 36000 |
| Route | OSDES Y302 SOTEG UY302 GARTA UV60 YNN UL604 DIMIS DCT RETRA DCT PETOV DCT LAMSI DCT ARMUT DCT ABGUS DCT DIRBO T902 RARUP RARUP6A |
| Aircraft | A319/M-SDE3FGHIRWY/LB1 |
Departure
| Time | 2026-05-05 11:43 |
|---|---|
| Airport | Zakynthos International Airport Dionysios Solomos (LGZA) |
Arrival
| Time | 2026-05-05 14:20 |
|---|---|
| Airport | Hamburg Helmut Schmidt Airport (EDDH) |
| Time | Latitude | Longitude | Altitude | Speed | Heading |
|---|---|---|---|---|---|
| 2026-05-05 11:08 | 37.75290 | 20.88571 | 18 ft | 0 kts | 72° |
| 2026-05-05 11:28 | 37.75286 | 20.88559 | 18 ft | 2 kts | 72° |
| 2026-05-05 11:29 | 37.75282 | 20.88541 | 18 ft | 2 kts | 72° |
| 2026-05-05 11:29 | 37.75277 | 20.88523 | 18 ft | 2 kts | 72° |
| 2026-05-05 11:29 | 37.75274 | 20.88504 | 18 ft | 2 kts | 94° |
| 2026-05-05 11:29 | 37.75278 | 20.88486 | 18 ft | 2 kts | 127° |
| 2026-05-05 11:30 | 37.75289 | 20.88475 | 18 ft | 1 kts | 158° |
| 2026-05-05 11:30 | 37.75295 | 20.88472 | 18 ft | 1 kts | 167° |
| 2026-05-05 11:30 | 37.75297 | 20.88472 | 18 ft | 0 kts | 164° |
| 2026-05-05 11:31 | 37.75295 | 20.88472 | 18 ft | 1 kts | 163° |
| 2026-05-05 11:32 | 37.75279 | 20.88478 | 18 ft | 4 kts | 163° |
| 2026-05-05 11:32 | 37.75230 | 20.88496 | 18 ft | 10 kts | 164° |
| 2026-05-05 11:32 | 37.75202 | 20.88508 | 18 ft | 0 kts | 160° |
| 2026-05-05 11:36 | 37.75200 | 20.88508 | 18 ft | 0 kts | 161° |
| 2026-05-05 11:36 | 37.75186 | 20.88514 | 18 ft | 3 kts | 165° |
| 2026-05-05 11:37 | 37.75149 | 20.88525 | 18 ft | 6 kts | 166° |
| 2026-05-05 11:37 | 37.75124 | 20.88529 | 18 ft | 0 kts | 182° |
| 2026-05-05 11:40 | 37.75122 | 20.88529 | 18 ft | 1 kts | 184° |
| 2026-05-05 11:40 | 37.75097 | 20.88516 | 18 ft | 9 kts | 210° |
| 2026-05-05 11:40 | 37.75009 | 20.88473 | 18 ft | 15 kts | 180° |
| 2026-05-05 11:41 | 37.74901 | 20.88498 | 18 ft | 16 kts | 164° |
| 2026-05-05 11:41 | 37.74791 | 20.88539 | 18 ft | 16 kts | 163° |
| 2026-05-05 11:41 | 37.74649 | 20.88595 | 18 ft | 27 kts | 162° |
| 2026-05-05 11:41 | 37.74453 | 20.88662 | 18 ft | 27 kts | 165° |
| 2026-05-05 11:42 | 37.74346 | 20.88677 | 18 ft | 12 kts | 140° |
| 2026-05-05 11:42 | 37.74358 | 20.88702 | 18 ft | 5 kts | 348° |
| 2026-05-05 11:42 | 37.74461 | 20.88662 | 18 ft | 42 kts | 344° |
| 2026-05-05 11:42 | 37.74990 | 20.88469 | 18 ft | 112 kts | 343° |
| 2026-05-05 11:43 | 37.75916 | 20.88118 | 41 ft | 164 kts | 341° |
| 2026-05-05 11:43 | 37.77010 | 20.87666 | 607 ft | 166 kts | 343° |
| 2026-05-05 11:43 | 37.78114 | 20.87271 | 1317 ft | 167 kts | 343° |
| 2026-05-05 11:43 | 37.79158 | 20.86915 | 1955 ft | 168 kts | 342° |
| 2026-05-05 11:44 | 37.80307 | 20.86523 | 2540 ft | 176 kts | 343° |
| 2026-05-05 11:44 | 37.81519 | 20.86062 | 3012 ft | 192 kts | 342° |
| 2026-05-05 11:44 | 37.82843 | 20.85546 | 3469 ft | 209 kts | 345° |
| 2026-05-05 11:44 | 37.84343 | 20.85449 | 3894 ft | 229 kts | 5° |
| 2026-05-05 11:45 | 37.85981 | 20.85635 | 4479 ft | 242 kts | 355° |
| 2026-05-05 11:45 | 37.87665 | 20.85202 | 5051 ft | 257 kts | 343° |
| 2026-05-05 11:45 | 37.89415 | 20.84512 | 5759 ft | 266 kts | 343° |
| 2026-05-05 11:45 | 37.91182 | 20.83819 | 6627 ft | 269 kts | 344° |
| 2026-05-05 11:46 | 37.92956 | 20.83160 | 7513 ft | 270 kts | 345° |
| 2026-05-05 11:46 | 37.94765 | 20.82517 | 8357 ft | 272 kts | 345° |
| 2026-05-05 11:46 | 37.96573 | 20.81895 | 9181 ft | 274 kts | 346° |
| 2026-05-05 11:46 | 37.98429 | 20.81269 | 10012 ft | 277 kts | 346° |
| 2026-05-05 11:47 | 38.00297 | 20.80648 | 10757 ft | 281 kts | 346° |
| 2026-05-05 11:47 | 38.02228 | 20.80010 | 11169 ft | 298 kts | 345° |
| 2026-05-05 11:47 | 38.04299 | 20.79327 | 11534 ft | 316 kts | 346° |
| 2026-05-05 11:47 | 38.06475 | 20.78612 | 11851 ft | 333 kts | 346° |
| 2026-05-05 11:48 | 38.11213 | 20.77056 | 12429 ft | 366 kts | 346° |
| 2026-05-05 11:48 | 38.13711 | 20.76236 | 12809 ft | 377 kts | 346° |
| 2026-05-05 11:48 | 38.16255 | 20.75403 | 13431 ft | 380 kts | 345° |
| 2026-05-05 11:49 | 38.18804 | 20.74568 | 14115 ft | 381 kts | 345° |
| 2026-05-05 11:49 | 38.21359 | 20.73730 | 14729 ft | 383 kts | 345° |
| 2026-05-05 11:49 | 38.23954 | 20.72878 | 15316 ft | 386 kts | 345° |
| 2026-05-05 11:49 | 38.26561 | 20.72018 | 15904 ft | 388 kts | 345° |
| 2026-05-05 11:50 | 38.29198 | 20.71148 | 16445 ft | 392 kts | 345° |
| 2026-05-05 11:50 | 38.31824 | 20.70283 | 16953 ft | 395 kts | 345° |
| 2026-05-05 11:50 | 38.34503 | 20.69399 | 17481 ft | 397 kts | 345° |
| 2026-05-05 11:50 | 38.37194 | 20.68510 | 17966 ft | 400 kts | 345° |
| 2026-05-05 11:51 | 38.39871 | 20.67625 | 18453 ft | 402 kts | 344° |
| 2026-05-05 11:51 | 38.42598 | 20.66723 | 18930 ft | 404 kts | 344° |
| 2026-05-05 11:51 | 38.45305 | 20.65827 | 19401 ft | 406 kts | 344° |
| 2026-05-05 11:51 | 38.48054 | 20.64917 | 19856 ft | 408 kts | 344° |
| 2026-05-05 11:52 | 38.50819 | 20.64000 | 20296 ft | 410 kts | 344° |
| 2026-05-05 11:52 | 38.53549 | 20.63095 | 20749 ft | 411 kts | 344° |
| 2026-05-05 11:52 | 38.56344 | 20.62168 | 21156 ft | 413 kts | 344° |
| 2026-05-05 11:52 | 38.59129 | 20.61242 | 21575 ft | 415 kts | 344° |
| 2026-05-05 11:53 | 38.61944 | 20.60307 | 21970 ft | 417 kts | 344° |
| 2026-05-05 11:53 | 38.64719 | 20.59383 | 22376 ft | 418 kts | 344° |
| 2026-05-05 11:53 | 38.67531 | 20.58448 | 22778 ft | 419 kts | 344° |
| 2026-05-05 11:53 | 38.70365 | 20.57503 | 23131 ft | 421 kts | 344° |
| 2026-05-05 11:54 | 38.73206 | 20.56555 | 23490 ft | 422 kts | 344° |
| 2026-05-05 11:54 | 38.76059 | 20.55603 | 23840 ft | 424 kts | 344° |
| 2026-05-05 11:54 | 38.78916 | 20.54648 | 24160 ft | 426 kts | 344° |
| 2026-05-05 11:54 | 38.81782 | 20.53690 | 24495 ft | 428 kts | 343° |
| 2026-05-05 11:55 | 38.84665 | 20.52725 | 24837 ft | 428 kts | 343° |
| 2026-05-05 11:55 | 38.87543 | 20.51762 | 25189 ft | 428 kts | 343° |
| 2026-05-05 11:55 | 38.90430 | 20.50796 | 25655 ft | 426 kts | 343° |
| 2026-05-05 11:55 | 38.93277 | 20.49842 | 26122 ft | 423 kts | 343° |
| 2026-05-05 11:56 | 38.96114 | 20.48891 | 26575 ft | 421 kts | 343° |
| 2026-05-05 11:56 | 38.98947 | 20.47940 | 27000 ft | 419 kts | 343° |
| 2026-05-05 11:56 | 39.01733 | 20.47003 | 27453 ft | 417 kts | 343° |
| 2026-05-05 11:56 | 39.04552 | 20.46053 | 27900 ft | 414 kts | 343° |
| 2026-05-05 11:57 | 39.07297 | 20.45129 | 28325 ft | 412 kts | 343° |
| 2026-05-05 11:57 | 39.10096 | 20.44184 | 28729 ft | 411 kts | 343° |
| 2026-05-05 11:57 | 39.12833 | 20.43261 | 29126 ft | 410 kts | 343° |
| 2026-05-05 11:57 | 39.15590 | 20.42331 | 29553 ft | 408 kts | 342° |
| 2026-05-05 11:58 | 39.18341 | 20.41400 | 30007 ft | 406 kts | 342° |
| 2026-05-05 11:58 | 39.21040 | 20.40487 | 30473 ft | 403 kts | 342° |
| 2026-05-05 11:58 | 39.23751 | 20.39568 | 30879 ft | 401 kts | 342° |
| 2026-05-05 11:58 | 39.26437 | 20.38657 | 31204 ft | 402 kts | 342° |
| 2026-05-05 11:59 | 39.29133 | 20.37743 | 31507 ft | 402 kts | 342° |
| 2026-05-05 11:59 | 39.31856 | 20.36818 | 31846 ft | 402 kts | 342° |
| 2026-05-05 11:59 | 39.34536 | 20.35908 | 32163 ft | 402 kts | 342° |
| 2026-05-05 11:59 | 39.37231 | 20.34991 | 32484 ft | 402 kts | 342° |
| 2026-05-05 12:00 | 39.39093 | 20.34358 | 32728 ft | 401 kts | 342° |
| 2026-05-05 12:01 | 39.40206 | 20.33978 | 32876 ft | 401 kts | 341° |
| 2026-05-05 12:01 | 39.42865 | 20.33075 | 33214 ft | 400 kts | 341° |
| 2026-05-05 12:01 | 39.45565 | 20.32155 | 33552 ft | 399 kts | 341° |
| 2026-05-05 12:01 | 39.48241 | 20.31242 | 33880 ft | 398 kts | 342° |
| 2026-05-05 12:02 | 39.50923 | 20.30327 | 34210 ft | 397 kts | 342° |
| 2026-05-05 12:02 | 39.53578 | 20.29418 | 34494 ft | 397 kts | 342° |
| 2026-05-05 12:02 | 39.56279 | 20.28497 | 34678 ft | 398 kts | 341° |
| 2026-05-05 12:02 | 39.58939 | 20.27587 | 34820 ft | 400 kts | 342° |
| 2026-05-05 12:03 | 39.61657 | 20.26657 | 34943 ft | 402 kts | 341° |
| 2026-05-05 12:03 | 39.64342 | 20.25737 | 35094 ft | 404 kts | 341° |
| 2026-05-05 12:03 | 39.67072 | 20.24800 | 35249 ft | 405 kts | 341° |
| 2026-05-05 12:03 | 39.69780 | 20.23872 | 35389 ft | 406 kts | 341° |
| 2026-05-05 12:04 | 39.72517 | 20.22934 | 35538 ft | 406 kts | 341° |
| 2026-05-05 12:04 | 39.75262 | 20.21991 | 35689 ft | 407 kts | 341° |
| 2026-05-05 12:04 | 39.77970 | 20.21061 | 35817 ft | 408 kts | 341° |
| 2026-05-05 12:04 | 39.80722 | 20.20113 | 35932 ft | 409 kts | 341° |
| 2026-05-05 12:05 | 39.83465 | 20.19165 | 36046 ft | 410 kts | 341° |
| 2026-05-05 12:05 | 39.86243 | 20.18207 | 36128 ft | 411 kts | 341° |
| 2026-05-05 12:05 | 39.91770 | 20.16298 | 36133 ft | 412 kts | 341° |
| 2026-05-05 12:06 | 39.97269 | 20.14397 | 36135 ft | 411 kts | 341° |
| 2026-05-05 12:06 | 40.02826 | 20.12470 | 36132 ft | 411 kts | 341° |
| 2026-05-05 12:07 | 40.08350 | 20.10552 | 36128 ft | 411 kts | 341° |
| 2026-05-05 12:07 | 40.13870 | 20.08636 | 36123 ft | 410 kts | 341° |
| 2026-05-05 12:08 | 40.19367 | 20.06721 | 36124 ft | 411 kts | 341° |
| 2026-05-05 12:08 | 40.24893 | 20.04795 | 36125 ft | 411 kts | 341° |
| 2026-05-05 12:09 | 40.30399 | 20.02871 | 36122 ft | 409 kts | 341° |
| 2026-05-05 12:09 | 40.35903 | 20.00946 | 36124 ft | 409 kts | 341° |
| 2026-05-05 12:10 | 40.41394 | 19.99022 | 36123 ft | 409 kts | 341° |
| 2026-05-05 12:10 | 40.46880 | 19.97095 | 36124 ft | 409 kts | 341° |
| 2026-05-05 12:11 | 40.52344 | 19.95172 | 36124 ft | 409 kts | 340° |
| 2026-05-05 12:11 | 40.57863 | 19.93230 | 36122 ft | 408 kts | 340° |
| 2026-05-05 12:12 | 40.63304 | 19.91308 | 36122 ft | 407 kts | 341° |
| 2026-05-05 12:12 | 40.68762 | 19.89380 | 36117 ft | 407 kts | 340° |
| 2026-05-05 12:13 | 40.74258 | 19.87431 | 36112 ft | 408 kts | 340° |
| 2026-05-05 12:13 | 40.79738 | 19.85488 | 36110 ft | 408 kts | 340° |
| 2026-05-05 12:14 | 40.85200 | 19.83548 | 36107 ft | 409 kts | 340° |
| 2026-05-05 12:14 | 40.90702 | 19.81587 | 36104 ft | 408 kts | 340° |
| 2026-05-05 12:15 | 40.96179 | 19.79637 | 36101 ft | 408 kts | 340° |
| 2026-05-05 12:15 | 41.01636 | 19.77688 | 36100 ft | 407 kts | 340° |
| 2026-05-05 12:16 | 41.07122 | 19.75724 | 36102 ft | 409 kts | 340° |
| 2026-05-05 12:16 | 41.12597 | 19.73761 | 36107 ft | 408 kts | 340° |
| 2026-05-05 12:17 | 41.18070 | 19.71798 | 36109 ft | 408 kts | 340° |
| 2026-05-05 12:17 | 41.23551 | 19.69826 | 36107 ft | 408 kts | 340° |
| 2026-05-05 12:18 | 41.29023 | 19.67853 | 36107 ft | 409 kts | 340° |
| 2026-05-05 12:18 | 41.34531 | 19.65867 | 36108 ft | 410 kts | 340° |
| 2026-05-05 12:19 | 41.40010 | 19.63885 | 36104 ft | 411 kts | 340° |
| 2026-05-05 12:19 | 41.45501 | 19.61896 | 36102 ft | 411 kts | 339° |
| 2026-05-05 12:20 | 41.51041 | 19.59885 | 36100 ft | 411 kts | 339° |
| 2026-05-05 12:20 | 41.56568 | 19.57880 | 36100 ft | 412 kts | 340° |
| 2026-05-05 12:21 | 41.62088 | 19.55867 | 36099 ft | 412 kts | 339° |
| 2026-05-05 12:21 | 41.67613 | 19.53854 | 36096 ft | 413 kts | 339° |
| 2026-05-05 12:22 | 41.73139 | 19.51835 | 36092 ft | 413 kts | 339° |
| 2026-05-05 12:22 | 41.78701 | 19.49801 | 36090 ft | 414 kts | 339° |
| 2026-05-05 12:23 | 41.84228 | 19.47773 | 36089 ft | 414 kts | 339° |
| 2026-05-05 12:23 | 41.89812 | 19.45720 | 36092 ft | 414 kts | 339° |
| 2026-05-05 12:24 | 41.95357 | 19.43682 | 36091 ft | 415 kts | 339° |
| 2026-05-05 12:24 | 42.00913 | 19.41630 | 36092 ft | 416 kts | 339° |
| 2026-05-05 12:25 | 42.06507 | 19.39564 | 36096 ft | 416 kts | 339° |
| 2026-05-05 12:25 | 42.12058 | 19.37510 | 36099 ft | 417 kts | 339° |
| 2026-05-05 12:26 | 42.17659 | 19.35400 | 36097 ft | 417 kts | 338° |
| 2026-05-05 12:26 | 42.23062 | 19.32751 | 36100 ft | 413 kts | 332° |
| 2026-05-05 12:27 | 42.28204 | 19.29395 | 36100 ft | 409 kts | 326° |
| 2026-05-05 12:27 | 42.33165 | 19.25652 | 36093 ft | 410 kts | 326° |
| 2026-05-05 12:28 | 42.38129 | 19.21867 | 36102 ft | 411 kts | 326° |
| 2026-05-05 12:28 | 42.43116 | 19.18050 | 36105 ft | 410 kts | 326° |
| 2026-05-05 12:29 | 42.48077 | 19.14253 | 36113 ft | 411 kts | 326° |
| 2026-05-05 12:29 | 42.53055 | 19.10433 | 36119 ft | 413 kts | 326° |
| 2026-05-05 12:30 | 42.58022 | 19.06613 | 36132 ft | 411 kts | 326° |
| 2026-05-05 12:30 | 42.63016 | 19.02769 | 36143 ft | 413 kts | 326° |
| 2026-05-05 12:31 | 42.68000 | 18.98924 | 36140 ft | 414 kts | 326° |
| 2026-05-05 12:31 | 42.73015 | 18.95048 | 36142 ft | 416 kts | 325° |
| 2026-05-05 12:32 | 42.78041 | 18.91157 | 36140 ft | 417 kts | 325° |
| 2026-05-05 12:32 | 42.83071 | 18.87252 | 36144 ft | 417 kts | 325° |
| 2026-05-05 12:33 | 42.88095 | 18.83348 | 36141 ft | 416 kts | 325° |
| 2026-05-05 12:33 | 42.93103 | 18.79449 | 36148 ft | 417 kts | 325° |
| 2026-05-05 12:34 | 42.98123 | 18.75531 | 36150 ft | 419 kts | 325° |
| 2026-05-05 12:34 | 43.03162 | 18.71588 | 36144 ft | 419 kts | 325° |
| 2026-05-05 12:35 | 43.08228 | 18.67620 | 36146 ft | 421 kts | 325° |
| 2026-05-05 12:35 | 43.13289 | 18.63650 | 36142 ft | 420 kts | 325° |
| 2026-05-05 12:36 | 43.18351 | 18.59666 | 36142 ft | 421 kts | 326° |
| 2026-05-05 12:36 | 43.23456 | 18.55645 | 36135 ft | 424 kts | 325° |
| 2026-05-05 12:37 | 43.28554 | 18.51621 | 36133 ft | 425 kts | 326° |
| 2026-05-05 12:37 | 43.33669 | 18.47574 | 36122 ft | 425 kts | 326° |
| 2026-05-05 12:38 | 43.38792 | 18.43516 | 36118 ft | 426 kts | 326° |
| 2026-05-05 12:38 | 43.43933 | 18.39436 | 36122 ft | 426 kts | 326° |
| 2026-05-05 12:39 | 43.49049 | 18.35362 | 36109 ft | 428 kts | 326° |
| 2026-05-05 12:39 | 43.54223 | 18.31239 | 36098 ft | 429 kts | 326° |
| 2026-05-05 12:40 | 43.59378 | 18.27122 | 36098 ft | 431 kts | 326° |
| 2026-05-05 12:40 | 43.64572 | 18.22965 | 36092 ft | 432 kts | 326° |
| 2026-05-05 12:41 | 43.69737 | 18.18820 | 36096 ft | 432 kts | 326° |
| 2026-05-05 12:41 | 43.74939 | 18.14643 | 36093 ft | 433 kts | 326° |
| 2026-05-05 12:42 | 43.80133 | 18.10461 | 36089 ft | 434 kts | 326° |
| 2026-05-05 12:42 | 43.85360 | 18.06244 | 36084 ft | 435 kts | 326° |
| 2026-05-05 12:43 | 43.90562 | 18.02035 | 36072 ft | 436 kts | 326° |
| 2026-05-05 12:43 | 43.95801 | 17.97792 | 36060 ft | 437 kts | 326° |
| 2026-05-05 12:44 | 44.01029 | 17.93547 | 36061 ft | 438 kts | 326° |
| 2026-05-05 12:44 | 44.06289 | 17.89267 | 36058 ft | 439 kts | 326° |
| 2026-05-05 12:45 | 44.11565 | 17.84967 | 36057 ft | 439 kts | 327° |
| 2026-05-05 12:45 | 44.16807 | 17.80685 | 36054 ft | 439 kts | 327° |
| 2026-05-05 12:46 | 44.22077 | 17.76371 | 36057 ft | 440 kts | 327° |
| 2026-05-05 12:46 | 44.27357 | 17.72040 | 36049 ft | 441 kts | 326° |
| 2026-05-05 12:47 | 44.32629 | 17.67706 | 36049 ft | 441 kts | 326° |
| 2026-05-05 12:47 | 44.37896 | 17.63366 | 36052 ft | 442 kts | 327° |
| 2026-05-05 12:48 | 44.43208 | 17.58980 | 36038 ft | 442 kts | 327° |
| 2026-05-05 12:48 | 44.48482 | 17.54616 | 36036 ft | 443 kts | 326° |
| 2026-05-05 12:49 | 44.53786 | 17.50219 | 36040 ft | 443 kts | 327° |
| 2026-05-05 12:49 | 44.59074 | 17.45826 | 36026 ft | 444 kts | 326° |
| 2026-05-05 12:50 | 44.64354 | 17.41429 | 36025 ft | 445 kts | 326° |
| 2026-05-05 12:50 | 44.69687 | 17.36978 | 36009 ft | 446 kts | 326° |
| 2026-05-05 12:51 | 44.75017 | 17.32521 | 36000 ft | 447 kts | 326° |
| 2026-05-05 12:51 | 44.80343 | 17.28056 | 35991 ft | 448 kts | 326° |
| 2026-05-05 12:52 | 44.85685 | 17.23569 | 35972 ft | 448 kts | 326° |
| 2026-05-05 12:52 | 44.91018 | 17.19080 | 35977 ft | 448 kts | 326° |
| 2026-05-05 12:53 | 44.96350 | 17.14585 | 35982 ft | 447 kts | 326° |
| 2026-05-05 12:53 | 45.01671 | 17.10086 | 35989 ft | 448 kts | 326° |
| 2026-05-05 12:54 | 45.09701 | 17.03275 | 35990 ft | 450 kts | 326° |
| 2026-05-05 12:55 | 45.15078 | 16.98704 | 35988 ft | 450 kts | 326° |
| 2026-05-05 12:55 | 45.20407 | 16.94165 | 35979 ft | 450 kts | 326° |
| 2026-05-05 12:56 | 45.25754 | 16.89599 | 35972 ft | 449 kts | 326° |
| 2026-05-05 12:56 | 45.31084 | 16.85040 | 35970 ft | 448 kts | 326° |
| 2026-05-05 12:57 | 45.36414 | 16.80467 | 35976 ft | 448 kts | 326° |
| 2026-05-05 12:57 | 45.41744 | 16.75886 | 35974 ft | 448 kts | 326° |
| 2026-05-05 12:58 | 45.47049 | 16.71314 | 35974 ft | 448 kts | 326° |
| 2026-05-05 12:58 | 45.52382 | 16.66709 | 35975 ft | 449 kts | 326° |
| 2026-05-05 12:59 | 45.57712 | 16.62095 | 35977 ft | 449 kts | 326° |
| 2026-05-05 12:59 | 45.63031 | 16.57483 | 35971 ft | 449 kts | 327° |
| 2026-05-05 13:00 | 45.71006 | 16.50547 | 35965 ft | 448 kts | 326° |
| 2026-05-05 13:01 | 45.81634 | 16.41267 | 35964 ft | 448 kts | 326° |
| 2026-05-05 13:01 | 45.86934 | 16.36623 | 35964 ft | 448 kts | 326° |
| 2026-05-05 13:02 | 45.92282 | 16.31923 | 35969 ft | 449 kts | 326° |
| 2026-05-05 13:02 | 45.97594 | 16.27250 | 35968 ft | 449 kts | 326° |
| 2026-05-05 13:03 | 46.02906 | 16.22564 | 35961 ft | 449 kts | 326° |
| 2026-05-05 13:03 | 46.08214 | 16.17869 | 35949 ft | 449 kts | 326° |
| 2026-05-05 13:04 | 46.13554 | 16.13138 | 35949 ft | 449 kts | 326° |
| 2026-05-05 13:04 | 46.18854 | 16.08429 | 35937 ft | 450 kts | 326° |
| 2026-05-05 13:05 | 46.24165 | 16.03700 | 35934 ft | 450 kts | 326° |
| 2026-05-05 13:05 | 46.29505 | 15.98932 | 35941 ft | 450 kts | 326° |
| 2026-05-05 13:06 | 46.34723 | 15.94021 | 35941 ft | 449 kts | 324° |
| 2026-05-05 13:06 | 46.39892 | 15.89000 | 35932 ft | 449 kts | 324° |
| 2026-05-05 13:07 | 46.45055 | 15.83976 | 35929 ft | 449 kts | 323° |
| 2026-05-05 13:07 | 46.50239 | 15.78924 | 35932 ft | 449 kts | 324° |
| 2026-05-05 13:08 | 46.55413 | 15.73874 | 35919 ft | 449 kts | 324° |
| 2026-05-05 13:08 | 46.60583 | 15.68816 | 35923 ft | 449 kts | 324° |
| 2026-05-05 13:09 | 46.65734 | 15.63762 | 35923 ft | 449 kts | 324° |
| 2026-05-05 13:09 | 46.70882 | 15.58702 | 35914 ft | 449 kts | 323° |
| 2026-05-05 13:10 | 46.76040 | 15.53621 | 35904 ft | 449 kts | 323° |
| 2026-05-05 13:10 | 46.81208 | 15.48516 | 35902 ft | 449 kts | 323° |
| 2026-05-05 13:11 | 46.86393 | 15.43384 | 35896 ft | 450 kts | 323° |
| 2026-05-05 13:11 | 46.91524 | 15.38292 | 35887 ft | 450 kts | 323° |
| 2026-05-05 13:12 | 46.96725 | 15.33119 | 35890 ft | 449 kts | 323° |
| 2026-05-05 13:12 | 47.01871 | 15.27988 | 35885 ft | 449 kts | 323° |
| 2026-05-05 13:13 | 47.07029 | 15.22833 | 35884 ft | 449 kts | 323° |
| 2026-05-05 13:13 | 47.12174 | 15.17680 | 35877 ft | 448 kts | 323° |
| 2026-05-05 13:14 | 47.17299 | 15.12533 | 35879 ft | 449 kts | 323° |
| 2026-05-05 13:14 | 47.22464 | 15.07333 | 35902 ft | 449 kts | 323° |
| 2026-05-05 13:15 | 47.27603 | 15.02147 | 35915 ft | 450 kts | 323° |
| 2026-05-05 13:15 | 47.32764 | 14.96927 | 35918 ft | 450 kts | 323° |
| 2026-05-05 13:16 | 47.37864 | 14.91759 | 35917 ft | 448 kts | 323° |
| 2026-05-05 13:16 | 47.43006 | 14.86533 | 35909 ft | 448 kts | 323° |
| 2026-05-05 13:17 | 47.48133 | 14.81309 | 35887 ft | 449 kts | 323° |
| 2026-05-05 13:17 | 47.53239 | 14.76094 | 35883 ft | 449 kts | 323° |
| 2026-05-05 13:18 | 47.58375 | 14.70837 | 35882 ft | 449 kts | 322° |
| 2026-05-05 13:18 | 47.63485 | 14.65593 | 35873 ft | 449 kts | 323° |
| 2026-05-05 13:19 | 47.68595 | 14.60337 | 35855 ft | 449 kts | 323° |
| 2026-05-05 13:19 | 47.73719 | 14.55053 | 35851 ft | 449 kts | 323° |
| 2026-05-05 13:20 | 47.78820 | 14.49781 | 35832 ft | 448 kts | 322° |
| 2026-05-05 13:20 | 47.83937 | 14.44480 | 35828 ft | 449 kts | 322° |
| 2026-05-05 13:21 | 47.89044 | 14.39175 | 35806 ft | 449 kts | 322° |
| 2026-05-05 13:21 | 47.94147 | 14.33861 | 35800 ft | 449 kts | 322° |
| 2026-05-05 13:22 | 47.99282 | 14.28501 | 35793 ft | 449 kts | 321° |
| 2026-05-05 13:22 | 48.04400 | 14.23144 | 35781 ft | 450 kts | 322° |
| 2026-05-05 13:23 | 48.09529 | 14.17763 | 35774 ft | 450 kts | 322° |
| 2026-05-05 13:23 | 48.14316 | 14.12730 | 35773 ft | 451 kts | 322° |
| 2026-05-05 13:24 | 48.19433 | 14.07336 | 35769 ft | 450 kts | 322° |
| 2026-05-05 13:24 | 48.24541 | 14.01940 | 35769 ft | 450 kts | 322° |
| 2026-05-05 13:25 | 48.29634 | 13.96544 | 35763 ft | 449 kts | 322° |
| 2026-05-05 13:25 | 48.34712 | 13.91151 | 35768 ft | 450 kts | 321° |
| 2026-05-05 13:26 | 48.39810 | 13.85723 | 35771 ft | 450 kts | 321° |
| 2026-05-05 13:26 | 48.44881 | 13.80309 | 35775 ft | 450 kts | 322° |
| 2026-05-05 13:27 | 48.49998 | 13.74834 | 35779 ft | 451 kts | 321° |
| 2026-05-05 13:27 | 48.55116 | 13.69344 | 35782 ft | 452 kts | 321° |
| 2026-05-05 13:28 | 48.60205 | 13.63871 | 35783 ft | 451 kts | 321° |
| 2026-05-05 13:28 | 48.65282 | 13.58395 | 35789 ft | 451 kts | 321° |
| 2026-05-05 13:29 | 48.70289 | 13.52720 | 35784 ft | 450 kts | 320° |
| 2026-05-05 13:29 | 48.75255 | 13.46972 | 35783 ft | 450 kts | 320° |
| 2026-05-05 13:30 | 48.80192 | 13.41259 | 35788 ft | 450 kts | 320° |
| 2026-05-05 13:30 | 48.85173 | 13.35495 | 35793 ft | 451 kts | 320° |
| 2026-05-05 13:31 | 48.90166 | 13.29706 | 35798 ft | 451 kts | 319° |
| 2026-05-05 13:31 | 48.95130 | 13.23935 | 35793 ft | 452 kts | 319° |
| 2026-05-05 13:32 | 49.00106 | 13.18135 | 35789 ft | 452 kts | 319° |
| 2026-05-05 13:32 | 49.05082 | 13.12322 | 35789 ft | 451 kts | 319° |
| 2026-05-05 13:33 | 49.10005 | 13.06555 | 35790 ft | 451 kts | 319° |
| 2026-05-05 13:33 | 49.14997 | 13.00691 | 35784 ft | 452 kts | 319° |
| 2026-05-05 13:34 | 49.19983 | 12.94821 | 35789 ft | 453 kts | 319° |
| 2026-05-05 13:34 | 49.24969 | 12.88936 | 35784 ft | 453 kts | 319° |
| 2026-05-05 13:35 | 49.29961 | 12.83029 | 35788 ft | 454 kts | 319° |
| 2026-05-05 13:35 | 49.34936 | 12.77125 | 35779 ft | 455 kts | 319° |
| 2026-05-05 13:36 | 49.39900 | 12.71219 | 35781 ft | 455 kts | 319° |
| 2026-05-05 13:36 | 49.44890 | 12.65266 | 35782 ft | 455 kts | 319° |
| 2026-05-05 13:37 | 49.49883 | 12.59293 | 35780 ft | 455 kts | 319° |
| 2026-05-05 13:37 | 49.54870 | 12.53312 | 35791 ft | 455 kts | 319° |
| 2026-05-05 13:38 | 49.59848 | 12.47325 | 35793 ft | 455 kts | 319° |
| 2026-05-05 13:38 | 49.64807 | 12.41369 | 35790 ft | 457 kts | 321° |
| 2026-05-05 13:39 | 49.67556 | 12.38825 | 35786 ft | 462 kts | 332° |
| 2026-05-05 13:39 | 49.70491 | 12.36925 | 35794 ft | 464 kts | 336° |
| 2026-05-05 13:39 | 49.76561 | 12.33458 | 35787 ft | 464 kts | 336° |
| 2026-05-05 13:40 | 49.82605 | 12.30005 | 35785 ft | 464 kts | 336° |
| 2026-05-05 13:40 | 49.88625 | 12.26515 | 35786 ft | 465 kts | 336° |
| 2026-05-05 13:41 | 49.94687 | 12.22973 | 35782 ft | 464 kts | 336° |
| 2026-05-05 13:41 | 50.00688 | 12.19449 | 35782 ft | 464 kts | 336° |
| 2026-05-05 13:42 | 50.06698 | 12.15911 | 35781 ft | 463 kts | 335° |
| 2026-05-05 13:42 | 50.12752 | 12.12338 | 35783 ft | 463 kts | 335° |
| 2026-05-05 13:43 | 50.18783 | 12.08766 | 35787 ft | 464 kts | 335° |
| 2026-05-05 13:43 | 50.24795 | 12.05196 | 35799 ft | 464 kts | 335° |
| 2026-05-05 13:44 | 50.30784 | 12.01632 | 35814 ft | 464 kts | 335° |
| 2026-05-05 13:44 | 50.36837 | 11.98017 | 35814 ft | 465 kts | 335° |
| 2026-05-05 13:45 | 50.42830 | 11.94427 | 35806 ft | 465 kts | 335° |
| 2026-05-05 13:45 | 50.48848 | 11.90815 | 35800 ft | 465 kts | 335° |
| 2026-05-05 13:46 | 50.54869 | 11.87193 | 35792 ft | 465 kts | 335° |
| 2026-05-05 13:46 | 50.60890 | 11.83560 | 35792 ft | 465 kts | 335° |
| 2026-05-05 13:47 | 50.66920 | 11.79908 | 35790 ft | 466 kts | 335° |
| 2026-05-05 13:47 | 50.72950 | 11.76250 | 35792 ft | 466 kts | 334° |
| 2026-05-05 13:48 | 50.79008 | 11.72563 | 35791 ft | 466 kts | 334° |
| 2026-05-05 13:48 | 50.85037 | 11.68882 | 35792 ft | 466 kts | 334° |
| 2026-05-05 13:49 | 50.91054 | 11.65199 | 35792 ft | 466 kts | 334° |
| 2026-05-05 13:49 | 50.97098 | 11.61494 | 35801 ft | 466 kts | 334° |
| 2026-05-05 13:50 | 51.03093 | 11.57802 | 35796 ft | 466 kts | 334° |
| 2026-05-05 13:50 | 51.09123 | 11.54083 | 35794 ft | 466 kts | 334° |
| 2026-05-05 13:51 | 51.15176 | 11.50337 | 35795 ft | 465 kts | 334° |
| 2026-05-05 13:51 | 51.21197 | 11.46601 | 35798 ft | 464 kts | 334° |
| 2026-05-05 13:52 | 51.27173 | 11.42880 | 35796 ft | 464 kts | 334° |
| 2026-05-05 13:52 | 51.33194 | 11.39123 | 35797 ft | 465 kts | 334° |
| 2026-05-05 13:53 | 51.39193 | 11.35370 | 35802 ft | 464 kts | 334° |
| 2026-05-05 13:53 | 51.45228 | 11.31583 | 35806 ft | 463 kts | 333° |
| 2026-05-05 13:54 | 51.51197 | 11.27825 | 35812 ft | 462 kts | 333° |
| 2026-05-05 13:54 | 51.57149 | 11.24069 | 35816 ft | 462 kts | 333° |
| 2026-05-05 13:55 | 51.63111 | 11.20293 | 35826 ft | 462 kts | 333° |
| 2026-05-05 13:55 | 51.69062 | 11.16517 | 35823 ft | 462 kts | 332° |
| 2026-05-05 13:56 | 51.74997 | 11.12738 | 35829 ft | 461 kts | 333° |
| 2026-05-05 13:56 | 51.80955 | 11.08943 | 35832 ft | 459 kts | 333° |
| 2026-05-05 13:57 | 51.87030 | 11.05851 | 35835 ft | 464 kts | 340° |
| 2026-05-05 13:57 | 51.93424 | 11.03850 | 35835 ft | 469 kts | 346° |
| 2026-05-05 13:58 | 51.99873 | 11.02471 | 35841 ft | 469 kts | 347° |
| 2026-05-05 13:58 | 52.06328 | 11.01125 | 35840 ft | 470 kts | 347° |
| 2026-05-05 13:59 | 52.16070 | 10.99054 | 35831 ft | 470 kts | 347° |
| 2026-05-05 14:00 | 52.24647 | 10.97212 | 35836 ft | 469 kts | 347° |
| 2026-05-05 14:00 | 52.32161 | 10.95588 | 35837 ft | 469 kts | 347° |
| 2026-05-05 14:01 | 52.38635 | 10.94185 | 35838 ft | 468 kts | 347° |
| 2026-05-05 14:01 | 52.45055 | 10.92789 | 35841 ft | 468 kts | 347° |
| 2026-05-05 14:02 | 52.48253 | 10.92093 | 35702 ft | 469 kts | 346° |
| 2026-05-05 14:02 | 52.51488 | 10.91386 | 35491 ft | 467 kts | 346° |
| 2026-05-05 14:02 | 52.54689 | 10.90690 | 35179 ft | 465 kts | 346° |
| 2026-05-05 14:02 | 52.57854 | 10.90003 | 34598 ft | 464 kts | 346° |
| 2026-05-05 14:03 | 52.61055 | 10.89299 | 33876 ft | 463 kts | 346° |
| 2026-05-05 14:03 | 52.64225 | 10.88597 | 33140 ft | 463 kts | 346° |
| 2026-05-05 14:03 | 52.67437 | 10.87887 | 32370 ft | 463 kts | 347° |
| 2026-05-05 14:03 | 52.70585 | 10.87194 | 31612 ft | 463 kts | 347° |
| 2026-05-05 14:04 | 52.73760 | 10.86495 | 30834 ft | 464 kts | 347° |
| 2026-05-05 14:04 | 52.76944 | 10.85794 | 30049 ft | 463 kts | 347° |
| 2026-05-05 14:04 | 52.80122 | 10.85090 | 29238 ft | 463 kts | 347° |
| 2026-05-05 14:04 | 52.83333 | 10.84380 | 28392 ft | 464 kts | 348° |
| 2026-05-05 14:05 | 52.86476 | 10.83719 | 27559 ft | 464 kts | 348° |
| 2026-05-05 14:05 | 52.89678 | 10.83069 | 26676 ft | 464 kts | 348° |
| 2026-05-05 14:05 | 52.92888 | 10.82422 | 25768 ft | 464 kts | 349° |
| 2026-05-05 14:05 | 52.96075 | 10.81778 | 24839 ft | 465 kts | 349° |
| 2026-05-05 14:06 | 52.99278 | 10.81127 | 23949 ft | 465 kts | 349° |
| 2026-05-05 14:06 | 53.02444 | 10.80483 | 23380 ft | 465 kts | 349° |
| 2026-05-05 14:06 | 53.05647 | 10.79832 | 22787 ft | 461 kts | 349° |
| 2026-05-05 14:06 | 53.08805 | 10.79187 | 22178 ft | 457 kts | 349° |
| 2026-05-05 14:07 | 53.11925 | 10.78549 | 21572 ft | 452 kts | 350° |
| 2026-05-05 14:07 | 53.15035 | 10.77912 | 20951 ft | 447 kts | 350° |
| 2026-05-05 14:07 | 53.18086 | 10.77286 | 20333 ft | 442 kts | 350° |
| 2026-05-05 14:07 | 53.21119 | 10.76641 | 19703 ft | 436 kts | 348° |
| 2026-05-05 14:08 | 53.23989 | 10.75178 | 18695 ft | 432 kts | 330° |
| 2026-05-05 14:08 | 53.26291 | 10.72151 | 17638 ft | 427 kts | 308° |
| 2026-05-05 14:08 | 53.27834 | 10.68014 | 16848 ft | 419 kts | 292° |
| 2026-05-05 14:08 | 53.28676 | 10.63374 | 16120 ft | 412 kts | 282° |
| 2026-05-05 14:09 | 53.29307 | 10.58753 | 15383 ft | 409 kts | 282° |
| 2026-05-05 14:09 | 53.29945 | 10.54158 | 14656 ft | 405 kts | 282° |
| 2026-05-05 14:09 | 53.30585 | 10.49682 | 14169 ft | 395 kts | 283° |
| 2026-05-05 14:09 | 53.31221 | 10.45307 | 13714 ft | 385 kts | 283° |
| 2026-05-05 14:10 | 53.31859 | 10.40966 | 13283 ft | 376 kts | 283° |
| 2026-05-05 14:10 | 53.32471 | 10.36823 | 12852 ft | 367 kts | 283° |
| 2026-05-05 14:10 | 53.33078 | 10.32728 | 12442 ft | 359 kts | 282° |
| 2026-05-05 14:10 | 53.33677 | 10.28682 | 12002 ft | 352 kts | 282° |
| 2026-05-05 14:11 | 53.34250 | 10.24810 | 11602 ft | 344 kts | 282° |
| 2026-05-05 14:11 | 53.34818 | 10.20975 | 11185 ft | 337 kts | 282° |
| 2026-05-05 14:11 | 53.35373 | 10.17211 | 10748 ft | 332 kts | 283° |
| 2026-05-05 14:11 | 53.35922 | 10.13487 | 10319 ft | 326 kts | 283° |
| 2026-05-05 14:12 | 53.36459 | 10.09837 | 9903 ft | 321 kts | 283° |
| 2026-05-05 14:12 | 53.36981 | 10.06275 | 9495 ft | 316 kts | 283° |
| 2026-05-05 14:12 | 53.37499 | 10.02733 | 9070 ft | 311 kts | 283° |
| 2026-05-05 14:12 | 53.38005 | 9.99254 | 8682 ft | 306 kts | 283° |
| 2026-05-05 14:13 | 53.38500 | 9.95862 | 8317 ft | 301 kts | 283° |
| 2026-05-05 14:13 | 53.38991 | 9.92482 | 7932 ft | 296 kts | 283° |
| 2026-05-05 14:13 | 53.39471 | 9.89176 | 7584 ft | 291 kts | 283° |
| 2026-05-05 14:13 | 53.40001 | 9.85904 | 7239 ft | 287 kts | 292° |
| 2026-05-05 14:14 | 53.41053 | 9.83164 | 6858 ft | 284 kts | 310° |
| 2026-05-05 14:14 | 53.42389 | 9.80733 | 6330 ft | 284 kts | 314° |
| 2026-05-05 14:14 | 53.43756 | 9.78371 | 5783 ft | 275 kts | 314° |
| 2026-05-05 14:14 | 53.45038 | 9.76147 | 5261 ft | 265 kts | 315° |
| 2026-05-05 14:15 | 53.46281 | 9.73959 | 4746 ft | 255 kts | 315° |
| 2026-05-05 14:15 | 53.47600 | 9.72097 | 4247 ft | 244 kts | 336° |
| 2026-05-05 14:15 | 53.49198 | 9.71558 | 3848 ft | 230 kts | 8° |
| 2026-05-05 14:15 | 53.50624 | 9.72509 | 3548 ft | 222 kts | 40° |
| 2026-05-05 14:16 | 53.51542 | 9.74554 | 3295 ft | 218 kts | 60° |
| 2026-05-05 14:16 | 53.52294 | 9.76748 | 3030 ft | 215 kts | 56° |
| 2026-05-05 14:16 | 53.53142 | 9.78772 | 2764 ft | 212 kts | 51° |
| 2026-05-05 14:16 | 53.54084 | 9.80691 | 2490 ft | 210 kts | 49° |
| 2026-05-05 14:17 | 53.54978 | 9.82466 | 2213 ft | 191 kts | 49° |
| 2026-05-05 14:17 | 53.55791 | 9.84102 | 1949 ft | 174 kts | 50° |
| 2026-05-05 14:17 | 53.56558 | 9.85661 | 1740 ft | 171 kts | 50° |
| 2026-05-05 14:17 | 53.57280 | 9.87133 | 1578 ft | 156 kts | 50° |
| 2026-05-05 14:18 | 53.57946 | 9.88492 | 1342 ft | 145 kts | 49° |
| 2026-05-05 14:18 | 53.58554 | 9.89727 | 1122 ft | 132 kts | 51° |
| 2026-05-05 14:18 | 53.59110 | 9.90860 | 930 ft | 123 kts | 52° |
| 2026-05-05 14:18 | 53.59661 | 9.91999 | 786 ft | 126 kts | 51° |
| 2026-05-05 14:19 | 53.60215 | 9.93140 | 598 ft | 124 kts | 50° |
| 2026-05-05 14:19 | 53.60774 | 9.94246 | 454 ft | 125 kts | 51° |
| 2026-05-05 14:19 | 53.61330 | 9.95385 | 298 ft | 126 kts | 52° |
| 2026-05-05 14:19 | 53.61891 | 9.96527 | 141 ft | 128 kts | 49° |
| 2026-05-05 14:20 | 53.62455 | 9.97646 | 63 ft | 116 kts | 51° |
| 2026-05-05 14:20 | 53.62864 | 9.98477 | 62 ft | 70 kts | 51° |
| 2026-05-05 14:20 | 53.63112 | 9.98981 | 62 ft | 43 kts | 50° |
| 2026-05-05 14:20 | 53.63282 | 9.99370 | 62 ft | 37 kts | 71° |
| 2026-05-05 14:21 | 53.63277 | 9.99618 | 62 ft | 10 kts | 118° |
| 2026-05-05 14:21 | 53.63242 | 9.99740 | 62 ft | 12 kts | 137° |
| 2026-05-05 14:21 | 53.63186 | 9.99796 | 62 ft | 8 kts | 152° |
| 2026-05-05 14:21 | 53.63130 | 9.99845 | 62 ft | 9 kts | 153° |
| 2026-05-05 14:22 | 53.63063 | 9.99901 | 62 ft | 11 kts | 154° |
| 2026-05-05 14:22 | 53.62987 | 9.99962 | 62 ft | 12 kts | 154° |
| 2026-05-05 14:22 | 53.62906 | 10.00038 | 62 ft | 13 kts | 127° |
| 2026-05-05 14:22 | 53.62910 | 10.00124 | 62 ft | 7 kts | 31° |
| 2026-05-05 14:23 | 53.62969 | 10.00160 | 62 ft | 9 kts | 23° |
| 2026-05-05 14:23 | 53.63032 | 10.00225 | 62 ft | 11 kts | 33° |
| 2026-05-05 14:23 | 53.63078 | 10.00308 | 62 ft | 7 kts | 96° |
| 2026-05-05 14:23 | 53.63075 | 10.00374 | 62 ft | 2 kts | 93° |
| 2026-05-05 14:24 | 53.63074 | 10.00380 | 62 ft | 0 kts | 94° |